»·PEaware :: SWA31 KPHX-KABQ

SWA31 :: KPHX-KABQ

FLIGHT INFORMATION

Flight Status: Arrived
Operator:
Southwest Airlines
More flights by this operator :: More flights under this callsign
Pilot: Michael C. (16705)
Aircraft: BOEING 737-800
(B738)
More flights by this aircraft type
Origin: KPHX Phoenix Sky Harbor Intl
United States
Destination: KABQ Albuquerque Intl Sunport
United States
More flights between these airports :: More routes between these airports
Route: +LALUZ5 SJN CABNO KRKEE3
File this flight plan on PilotEdge
Remarks: PBN / A1B1C1D1L1O1S1 NAV / RNVD1E2A1 DOF / 170925 REG / N838NN RVR / 200 PER / C
Altitude:
(Current/Filed)
33,000ft
Speed:
(Current/Filed)
458kts
Departed: 25-Sep-17 09:54 AM
Arrived: 25-Sep-17 10:43 AM
Distance/Time
Traveled:
285nm/0:49
Distance/Time
To Go:
Arrived

Flight Plot

Page will automatically refresh every two minutes.

Flight plan parsing failed; only flown route is shown


Map Options




Map Legend


Flown Route
Filed Route
Departure Airport
Arrival Airport
Navaid (VOR, NDB)
Fix

Horizontal Profiles

Position Reports

Time Latitude Longitude Heading Altitude Ground
Speed
25-Sep-17 09:35 33.434385 -111.998615 268 1143ft 0kts
25-Sep-17 09:36 33.434385 -111.998615 268 1143ft 0kts
25-Sep-17 09:37 33.434385 -111.998615 268 1143ft 0kts
25-Sep-17 09:38 33.434385 -111.998615 268 1143ft 0kts
25-Sep-17 09:39 33.434385 -111.998615 268 1143ft 0kts
25-Sep-17 09:40 33.434385 -111.998615 268 1143ft 0kts
25-Sep-17 09:41 33.434385 -111.998615 268 1143ft 0kts
25-Sep-17 09:42 33.434385 -111.998615 268 1143ft 0kts
25-Sep-17 09:43 33.434391 -111.998303 268 1143ft 2kts
25-Sep-17 09:44 33.434399 -111.997957 268 1143ft 0kts
25-Sep-17 09:45 33.434399 -111.997957 268 1143ft 0kts
25-Sep-17 09:46 33.433886 -111.998132 179 1143ft 0kts
25-Sep-17 09:47 33.433886 -111.998132 179 1143ft 0kts
25-Sep-17 09:48 33.433886 -111.998132 179 1143ft 0kts
25-Sep-17 09:49 33.432697 -111.998121 178 1143ft 9kts
25-Sep-17 09:50 33.432082 -112.002425 269 1143ft 19kts
25-Sep-17 09:51 33.432158 -112.008668 270 1143ft 18kts
25-Sep-17 09:52 33.432090 -112.014631 271 1143ft 17kts
25-Sep-17 09:53 33.432117 -112.020367 270 1143ft 17kts
25-Sep-17 09:54 33.432131 -112.025764 270 1143ft 11kts
25-Sep-17 09:55 33.431963 -112.026892 214 1143ft 0kts
25-Sep-17 09:56 33.431962 -112.026893 214 1143ft 0kts
25-Sep-17 09:57 33.431031 -112.026166 90 1143ft 11kts
25-Sep-17 09:58 33.431470 -111.985405 86 2685ft 164kts
25-Sep-17 09:59 33.434592 -111.918136 85 4631ft 247kts
25-Sep-17 10:00 33.453510 -111.835345 63 7676ft 279kts
25-Sep-17 10:01 33.489093 -111.748862 63 10879ft 300kts
25-Sep-17 10:02 33.530285 -111.649076 62 12337ft 374kts
25-Sep-17 10:03 33.579371 -111.531132 62 14414ft 407kts
25-Sep-17 10:04 33.630531 -111.406941 62 16655ft 424kts
25-Sep-17 10:05 33.683627 -111.277377 61 18660ft 441kts
25-Sep-17 10:06 33.733753 -111.139732 65 20486ft 456kts
25-Sep-17 10:07 33.783952 -110.997151 65 22122ft 470kts
25-Sep-17 10:08 33.835892 -110.850378 65 23521ft 484kts
25-Sep-17 10:09 33.889536 -110.699036 65 24817ft 497kts
25-Sep-17 10:10 33.944086 -110.544255 65 25994ft 508kts
25-Sep-17 10:11 33.999545 -110.385699 65 27094ft 519kts
25-Sep-17 10:12 34.055856 -110.223348 65 28293ft 526kts
25-Sep-17 10:13 34.111951 -110.060823 65 29784ft 525kts
25-Sep-17 10:14 34.167721 -109.898138 66 31238ft 525kts
25-Sep-17 10:15 34.223808 -109.734917 66 32620ft 524kts
25-Sep-17 10:16 34.279588 -109.571566 66 33137ft 527kts
25-Sep-17 10:17 34.335289 -109.407941 66 33133ft 525kts
25-Sep-17 10:18 34.390322 -109.244261 67 33132ft 526kts
25-Sep-17 10:19 34.434063 -109.075962 81 33135ft 526kts
25-Sep-17 10:20 34.454896 -108.900258 82 33136ft 525kts
25-Sep-17 10:21 34.476851 -108.725375 82 33139ft 525kts
25-Sep-17 10:22 34.498256 -108.550369 82 31994ft 525kts
25-Sep-17 10:23 34.525510 -108.375703 78 28662ft 528kts
25-Sep-17 10:24 34.555642 -108.201925 78 25560ft 517kts
25-Sep-17 10:25 34.584755 -108.033146 78 24187ft 506kts
25-Sep-17 10:26 34.611274 -107.874437 79 23199ft 456kts
25-Sep-17 10:27 34.613721 -107.859726 79 23098ft 452kts
25-Sep-17 10:28 34.613721 -107.859726 79 23098ft 452kts
25-Sep-17 10:29 34.613721 -107.859726 79 23098ft 452kts
25-Sep-17 10:30 34.615533 -107.849373 78 23027ft 449kts
25-Sep-17 10:31 34.661413 -107.715441 61 21813ft 418kts
25-Sep-17 10:32 34.714728 -107.593000 62 19701ft 409kts
25-Sep-17 10:33 34.767359 -107.470832 63 17056ft 397kts
25-Sep-17 10:34 34.816515 -107.355566 63 15054ft 371kts
25-Sep-17 10:35 34.862489 -107.246672 63 13802ft 346kts
25-Sep-17 10:36 34.900236 -107.146375 76 13737ft 323kts
25-Sep-17 10:37 34.914240 -107.038088 83 12564ft 321kts
25-Sep-17 10:38 34.926509 -106.930842 82 11270ft 319kts
25-Sep-17 10:39 34.938280 -106.828924 82 10820ft 276kts
25-Sep-17 10:40 34.948495 -106.741061 82 10685ft 260kts
25-Sep-17 10:41 34.952917 -106.697791 86 10538ft 259kts
25-Sep-17 10:42 34.954972 -106.613269 89 10298ft 229kts
25-Sep-17 10:43 34.968207 -106.541308 50 9158ft 218kts
25-Sep-17 10:44 35.017703 -106.508455 358 8212ft 185kts
25-Sep-17 10:45 35.043140 -106.549941 274 6583ft 173kts
25-Sep-17 10:46 35.044251 -106.602751 271 5320ft 81kts
25-Sep-17 10:47 35.044787 -106.610575 353 5320ft 6kts

Navigation Log

Ident Type
Flight plan parsing failed, navigation log unavailable